Time;durP1;ratioP1;P1;durP2;ratioP2;P2;SDS_P1;SDS_P2;PMS_P1;PMS_P2;Temp;Humidity;BMP_temperature;BMP_pressure;BME280_temperature;BME280_humidity;BME280_pressure;Samples;Min_cycle;Max_cycle;Signal;HPM_P1;HPM_P2
2023/04/25 00:02:06;;;;;;;10.43;3.00;;;;;;;6.64;100.00;100157.75;4967060;28;20189;-53
2023/04/25 00:04:33;;;;;;;21.70;3.67;;;;;;;6.64;100.00;100152.41;4997631;28;20181;-47
2023/04/25 00:07:01;;;;;;;12.68;3.38;;;;;;;6.51;100.00;100159.94;4980546;28;20212;-46
2023/04/25 00:09:27;;;;;;;13.88;3.13;;;;;;;6.52;100.00;100152.84;4964407;28;20190;-45
2023/04/25 00:11:53;;;;;;;15.80;3.15;;;;;;;6.51;100.00;100165.25;4982290;28;20173;-48
2023/04/25 00:14:18;;;;;;;18.23;3.10;;;;;;;6.59;100.00;100159.69;4965450;28;20202;-45
2023/04/25 00:16:44;;;;;;;14.85;3.05;;;;;;;6.49;100.00;100164.44;4978670;28;20182;-48
2023/04/25 00:19:10;;;;;;;12.57;3.35;;;;;;;6.46;100.00;100164.53;4966322;28;20206;-47
2023/04/25 00:21:40;;;;;;;12.77;3.88;;;;;;;6.59;100.00;100157.91;4984861;28;20241;-46
2023/04/25 00:24:06;;;;;;;14.65;2.67;;;;;;;6.49;100.00;100156.44;4981643;28;20612;-45
2023/04/25 00:26:33;;;;;;;9.32;3.00;;;;;;;6.65;100.00;100155.94;4979634;28;20185;-44
2023/04/25 00:28:59;;;;;;;15.25;3.22;;;;;;;6.47;100.00;100155.66;4962811;28;20221;-43
2023/04/25 00:31:24;;;;;;;12.65;3.20;;;;;;;6.41;100.00;100163.81;4982806;28;20235;-43
2023/04/25 00:33:50;;;;;;;14.50;3.42;;;;;;;6.63;100.00;100171.13;4999208;28;20186;-43
2023/04/25 00:36:16;;;;;;;11.07;3.35;;;;;;;6.48;100.00;100157.38;4980485;28;20211;-44
2023/04/25 00:38:42;;;;;;;12.02;3.33;;;;;;;6.44;100.00;100168.19;4967463;28;20169;-43
2023/04/25 00:41:08;;;;;;;14.38;3.25;;;;;;;6.57;100.00;100175.72;4980162;28;20252;-42
2023/04/25 00:43:33;;;;;;;13.25;3.17;;;;;;;6.49;100.00;100168.88;4976184;28;20174;-44
2023/04/25 00:46:00;;;;;;;13.70;3.45;;;;;;;6.39;100.00;100165.66;4963394;28;20220;-46
2023/04/25 00:48:26;;;;;;;16.17;3.55;;;;;;;6.33;100.00;100168.50;4981457;28;20186;-43
2023/04/25 00:50:54;;;;;;;19.85;3.42;;;;;;;6.11;100.00;100174.50;4965602;28;20572;-42
2023/04/25 00:53:21;;;;;;;15.82;4.13;;;;;;;6.23;100.00;100175.94;4995861;28;20220;-43
2023/04/25 00:55:47;;;;;;;17.35;4.10;;;;;;;6.12;100.00;100165.63;4979031;28;20201;-43
2023/04/25 00:58:13;;;;;;;14.15;4.45;;;;;;;6.05;100.00;100169.34;4983222;28;20185;-44
2023/04/25 01:00:40;;;;;;;17.52;3.72;;;;;;;6.03;100.00;100179.16;4969508;28;20241;-50
2023/04/25 01:03:06;;;;;;;13.43;4.10;;;;;;;6.09;100.00;100178.13;4972941;28;20174;-45
2023/04/25 01:05:31;;;;;;;20.15;4.63;;;;;;;6.17;100.00;100176.97;4987583;28;20176;-47
2023/04/25 01:07:58;;;;;;;17.95;3.47;;;;;;;6.06;100.00;100173.78;4972544;28;20304;-44
2023/04/25 01:10:23;;;;;;;17.13;4.00;;;;;;;5.91;100.00;100177.72;4972903;28;20803;-44
2023/04/25 01:12:49;;;;;;;16.75;4.03;;;;;;;5.98;100.00;100186.41;4972526;28;20637;-45
2023/04/25 01:15:15;;;;;;;17.88;3.65;;;;;;;5.90;100.00;100191.03;4972769;28;20178;-43
2023/04/25 01:17:41;;;;;;;20.38;3.90;;;;;;;5.91;100.00;100190.16;4972462;28;20266;-45
2023/04/25 01:20:09;;;;;;;18.10;3.95;;;;;;;5.90;100.00;100181.31;4971282;28;20207;-44
2023/04/25 01:22:35;;;;;;;14.90;3.60;;;;;;;5.84;100.00;100177.94;4972566;28;20158;-43
2023/04/25 01:25:01;;;;;;;23.20;3.95;;;;;;;5.88;100.00;100190.22;4971036;28;20240;-47
2023/04/25 01:27:27;;;;;;;14.55;3.83;;;;;;;5.81;100.00;100191.31;4987426;28;20174;-49
2023/04/25 01:29:55;;;;;;;17.13;3.67;;;;;;;5.90;100.00;100191.03;4962178;28;20748;-46
2023/04/25 01:32:23;;;;;;;14.15;3.80;;;;;;;5.80;100.00;100192.25;4978472;28;20610;-47
2023/04/25 01:34:49;;;;;;;19.25;4.13;;;;;;;5.60;100.00;100182.16;4971036;28;20653;-48
2023/04/25 01:37:16;;;;;;;12.85;3.08;;;;;;;5.76;100.00;100196.78;4963544;28;20189;-46
2023/04/25 01:39:44;;;;;;;12.07;3.40;;;;;;;5.65;100.00;100198.88;4980806;28;20279;-47
2023/04/25 01:42:21;;;;;;;10.82;3.28;;;;;;;5.62;100.00;100215.78;4993631;28;20190;-45
2023/04/25 01:44:47;;;;;;;15.10;3.28;;;;;;;5.66;100.00;100195.28;4977436;28;20651;-46
2023/04/25 01:47:13;;;;;;;15.98;3.15;;;;;;;5.59;100.00;100205.22;4980225;28;20189;-47
2023/04/25 01:49:39;;;;;;;12.73;4.10;;;;;;;5.61;100.00;100207.84;4955718;28;20210;-48
2023/04/25 01:52:05;;;;;;;15.40;3.47;;;;;;;5.62;100.00;100214.88;4994422;28;20185;-47
2023/04/25 01:54:30;;;;;;;17.00;3.10;;;;;;;5.47;100.00;100208.22;4982727;28;20185;-46
2023/04/25 01:56:57;;;;;;;13.95;2.92;;;;;;;5.53;100.00;100216.00;4965747;28;20229;-47
2023/04/25 01:59:22;;;;;;;14.57;3.00;;;;;;;5.51;100.00;100217.84;4962571;28;20579;-48
2023/04/25 02:02:09;;;;;;;13.77;3.38;;;;;;;5.35;100.00;100209.41;4976496;28;20205;-48
2023/04/25 02:05:06;;;;;;;12.68;3.15;;;;;;;5.50;100.00;100209.00;4969195;28;20252;-47
2023/04/25 02:07:34;;;;;;;18.05;3.20;;;;;;;5.29;100.00;100214.88;4977384;28;20225;-48
2023/04/25 02:10:00;;;;;;;15.90;3.28;;;;;;;5.30;100.00;100212.19;4964270;28;20244;-46
2023/04/25 02:12:30;;;;;;;17.10;3.97;;;;;;;5.32;100.00;100225.44;4968735;28;20193;-48
2023/04/25 02:15:02;;;;;;;16.05;3.70;;;;;;;5.35;100.00;100212.06;4977693;28;20186;-42
2023/04/25 02:17:41;;;;;;;16.67;3.92;;;;;;;5.22;100.00;100223.94;4978918;28;20173;-45
2023/04/25 02:20:07;;;;;;;16.75;3.58;;;;;;;5.00;100.00;100229.78;4974881;28;20308;-44
2023/04/25 02:22:33;;;;;;;19.05;4.65;;;;;;;5.07;100.00;100218.13;4980239;28;20181;-44
2023/04/25 02:24:59;;;;;;;18.58;3.50;;;;;;;5.15;100.00;100224.09;4969821;28;20182;-46
2023/04/25 02:27:25;;;;;;;12.82;3.42;;;;;;;5.12;100.00;100225.97;4979345;28;20676;-44
2023/04/25 02:29:50;;;;;;;16.35;4.25;;;;;;;5.06;100.00;100226.97;4968012;28;20304;-46
2023/04/25 02:32:16;;;;;;;17.15;3.92;;;;;;;5.19;100.00;100232.00;4995018;28;20201;-44
2023/04/25 02:34:41;;;;;;;15.70;3.65;;;;;;;4.98;100.00;100233.38;4999053;28;20189;-44
2023/04/25 02:37:07;;;;;;;20.10;4.03;;;;;;;4.92;100.00;100223.81;4978884;28;20190;-47
2023/04/25 02:39:32;;;;;;;12.23;3.72;;;;;;;4.90;100.00;100228.28;4980644;28;20197;-45
2023/04/25 02:41:58;;;;;;;14.95;3.45;;;;;;;5.00;100.00;100224.47;4980405;28;20195;-46
2023/04/25 02:44:23;;;;;;;19.17;4.00;;;;;;;4.85;100.00;100231.03;4967532;28;20192;-43
2023/04/25 02:46:49;;;;;;;20.63;4.20;;;;;;;4.96;100.00;100222.81;4994636;28;20263;-45
2023/04/25 02:49:15;;;;;;;19.75;3.75;;;;;;;5.04;100.00;100222.63;4970869;28;20197;-45
2023/04/25 02:51:40;;;;;;;15.95;3.55;;;;;;;5.08;100.00;100230.47;4984753;28;20235;-43
2023/04/25 02:54:06;;;;;;;21.90;4.03;;;;;;;5.10;100.00;100222.47;4973897;28;20189;-50
2023/04/25 02:56:36;;;;;;;19.33;4.03;;;;;;;5.10;100.00;100230.44;4995172;28;20663;-48
2023/04/25 02:59:02;;;;;;;20.17;3.95;;;;;;;5.01;100.00;100230.66;4962099;28;20174;-47
2023/04/25 03:01:29;;;;;;;21.05;4.75;;;;;;;5.05;100.00;100237.63;5000732;28;20217;-43
2023/04/25 03:03:55;;;;;;;18.95;4.00;;;;;;;5.21;100.00;100240.78;4993703;28;20573;-45
2023/04/25 03:06:20;;;;;;;17.50;3.78;;;;;;;5.09;100.00;100237.50;4981140;28;20196;-50
2023/04/25 03:08:46;;;;;;;26.38;3.95;;;;;;;5.08;100.00;100234.91;4983037;28;20280;-46
2023/04/25 03:11:11;;;;;;;18.25;4.03;;;;;;;5.07;100.00;100228.75;4998485;28;20284;-47
2023/04/25 03:13:37;;;;;;;18.30;3.72;;;;;;;5.25;100.00;100234.50;4972690;28;20181;-47
2023/04/25 03:16:03;;;;;;;16.33;4.18;;;;;;;5.24;100.00;100219.44;4973220;28;20190;-46
2023/04/25 03:18:29;;;;;;;18.98;4.03;;;;;;;5.18;100.00;100223.13;4985082;28;20188;-48
2023/04/25 03:20:55;;;;;;;15.63;4.25;;;;;;;5.12;100.00;100220.66;4965931;28;20586;-51
2023/04/25 03:23:21;;;;;;;12.75;4.05;;;;;;;5.13;100.00;100225.03;4979954;28;20185;-46
2023/04/25 03:25:46;;;;;;;18.88;4.30;;;;;;;5.22;100.00;100221.28;4963913;28;20189;-43
2023/04/25 03:28:12;;;;;;;19.83;3.60;;;;;;;5.24;100.00;100225.63;4951743;28;20538;-45
2023/04/25 03:30:37;;;;;;;18.63;3.30;;;;;;;5.14;100.00;100225.00;4973847;28;20210;-45
2023/04/25 03:33:03;;;;;;;18.92;3.53;;;;;;;5.13;99.71;100225.03;4993735;28;20260;-49
2023/04/25 03:35:29;;;;;;;13.85;4.68;;;;;;;5.06;98.97;100231.44;4993927;28;20193;-46
2023/04/25 03:37:54;;;;;;;19.38;4.15;;;;;;;5.19;98.28;100229.34;5008875;28;20173;-47
2023/04/25 03:40:25;;;;;;;16.48;3.65;;;;;;;5.26;97.85;100233.56;4976281;28;20197;-50
2023/04/25 03:43:06;;;;;;;16.90;3.42;;;;;;;5.15;97.25;100237.34;5008116;28;20192;-49
2023/04/25 03:45:32;;;;;;;16.08;3.88;;;;;;;5.12;96.94;100247.22;4976523;28;20169;-45
2023/04/25 03:47:58;;;;;;;13.90;3.92;;;;;;;5.24;96.38;100236.25;4976180;28;20207;-46
2023/04/25 03:50:24;;;;;;;17.67;4.10;;;;;;;5.18;96.04;100239.06;4975705;28;20198;-49
2023/04/25 03:52:50;;;;;;;22.00;4.00;;;;;;;5.17;95.74;100237.34;4976012;28;20188;-46
2023/04/25 03:55:15;;;;;;;21.50;4.05;;;;;;;5.18;95.12;100251.47;4992948;28;20181;-45
2023/04/25 03:57:41;;;;;;;21.20;4.03;;;;;;;5.09;94.78;100247.25;4975835;28;20208;-43
2023/04/25 04:00:07;;;;;;;21.27;4.25;;;;;;;5.18;94.93;100239.06;4993492;28;20188;-46
2023/04/25 04:02:38;;;;;;;15.27;3.45;;;;;;;5.07;94.87;100255.28;4993048;28;20193;-49
2023/04/25 04:05:05;;;;;;;18.50;4.00;;;;;;;5.10;94.77;100249.03;4975550;28;20169;-52
2023/04/25 04:07:33;;;;;;;16.40;3.60;;;;;;;5.18;94.56;100247.03;4988523;28;20189;-47
2023/04/25 04:09:59;;;;;;;14.23;3.65;;;;;;;5.17;94.47;100253.25;4968923;28;20220;-46
2023/04/25 04:12:32;;;;;;;15.93;3.28;;;;;;;5.18;93.88;100249.69;4950206;28;20293;-49
2023/04/25 04:14:57;;;;;;;20.02;3.67;;;;;;;5.11;93.32;100248.09;4996829;28;20189;-45
2023/04/25 04:17:23;;;;;;;12.55;3.13;;;;;;;5.00;92.02;100255.47;4998125;28;20225;-48
2023/04/25 04:19:50;;;;;;;14.50;3.95;;;;;;;5.11;91.52;100242.78;4995379;28;20221;-45
2023/04/25 04:22:19;;;;;;;21.65;4.18;;;;;;;4.95;90.33;100243.19;4963025;28;20224;-47
2023/04/25 04:24:46;;;;;;;15.50;3.55;;;;;;;4.99;89.20;100240.47;4994220;28;20200;-46
2023/04/25 04:27:17;;;;;;;14.68;3.65;;;;;;;5.24;87.81;100241.56;4996081;28;20201;-49
2023/04/25 04:29:53;;;;;;;11.93;3.47;;;;;;;5.19;86.48;100250.59;4979929;28;20580;-46
2023/04/25 04:32:30;;;;;;;14.02;3.85;;;;;;;5.16;85.83;100241.78;4996088;28;20173;-44
2023/04/25 04:34:56;;;;;;;19.38;4.53;;;;;;;5.21;85.34;100243.44;4968911;28;20197;-48
2023/04/25 04:37:22;;;;;;;24.77;4.10;;;;;;;5.12;85.09;100247.22;4995522;28;20216;-47
2023/04/25 04:39:48;;;;;;;19.33;3.20;;;;;;;5.19;85.21;100237.31;4970739;28;20244;-46
2023/04/25 04:42:45;;;;;;;17.63;3.55;;;;;;;5.15;84.21;100234.69;4972633;28;20352;-46
2023/04/25 04:45:40;;;;;;;16.73;4.07;;;;;;;5.25;84.29;100240.66;5004364;28;20219;-45
2023/04/25 04:48:21;;;;;;;19.40;3.53;;;;;;;5.17;84.25;100234.69;4992359;28;20158;-46
2023/04/25 04:51:05;;;;;;;16.27;3.28;;;;;;;5.29;83.90;100254.72;4992859;28;20614;-45
2023/04/25 04:54:08;;;;;;;17.88;3.88;;;;;;;5.31;83.70;100259.09;4977785;28;20213;-48
2023/04/25 04:56:34;;;;;;;21.48;4.10;;;;;;;5.31;83.56;100252.91;4992940;28;20260;-44
2023/04/25 04:59:23;;;;;;;15.88;3.08;;;;;;;5.34;83.06;100255.50;4983988;28;20201;-46
2023/04/25 05:02:17;;;;;;;19.50;3.90;;;;;;;5.24;82.79;100249.53;4939175;28;20268;-46
2023/04/25 05:05:02;;;;;;;13.05;3.60;;;;;;;5.29;82.94;100268.00;4992673;28;20156;-46
2023/04/25 05:07:46;;;;;;;13.35;3.15;;;;;;;5.26;82.35;100271.63;4991197;28;20200;-45
2023/04/25 05:10:30;;;;;;;16.02;3.05;;;;;;;5.41;81.96;100261.53;4992119;28;20263;-45
2023/04/25 05:12:55;;;;;;;15.82;3.40;;;;;;;5.33;81.95;100262.56;4991968;28;20170;-46
2023/04/25 05:15:44;;;;;;;21.42;4.45;;;;;;;5.30;82.08;100265.31;4974664;28;20560;-46
2023/04/25 05:18:10;;;;;;;15.25;3.30;;;;;;;5.27;82.44;100272.47;4992233;28;20189;-45
2023/04/25 05:20:58;;;;;;;14.25;3.45;;;;;;;5.40;82.51;100273.03;4962304;28;20209;-45
2023/04/25 05:24:00;;;;;;;18.88;3.90;;;;;;;5.27;81.94;100281.34;4930793;29;20215;-46
2023/04/25 05:27:03;;;;;;;15.27;3.95;;;;;;;5.40;82.38;100286.31;4921420;29;20207;-46
2023/04/25 05:29:32;;;;;;;12.55;3.72;;;;;;;5.45;82.25;100281.78;4923791;29;20227;-46
2023/04/25 05:32:20;;;;;;;22.17;3.50;;;;;;;5.53;81.82;100287.75;4944959;28;20626;-47
2023/04/25 05:34:46;;;;;;;10.98;3.38;;;;;;;5.52;81.68;100286.88;4990878;28;20373;-48
2023/04/25 05:37:21;;;;;;;18.42;3.58;;;;;;;5.56;81.28;100296.53;4967740;28;20691;-46
2023/04/25 05:40:06;;;;;;;24.35;3.78;;;;;;;5.50;80.82;100302.00;4970737;28;20287;-47
2023/04/25 05:42:58;;;;;;;15.30;3.17;;;;;;;5.54;80.95;100292.16;4976287;28;20193;-46
2023/04/25 05:45:26;;;;;;;13.60;3.22;;;;;;;5.57;80.31;100300.03;4980212;28;20193;-46
2023/04/25 05:48:07;;;;;;;13.02;3.17;;;;;;;5.62;80.46;100305.22;4955895;28;20227;-46
2023/04/25 05:50:55;;;;;;;14.38;3.42;;;;;;;5.61;79.81;100307.03;4952351;28;20284;-47
2023/04/25 05:53:40;;;;;;;12.73;3.50;;;;;;;5.55;79.91;100297.44;4976653;28;20421;-48
2023/04/25 05:56:05;;;;;;;16.60;3.80;;;;;;;5.44;79.64;100302.13;4970379;28;20186;-48
2023/04/25 05:58:31;;;;;;;20.42;3.55;;;;;;;5.52;79.07;100304.63;4963984;28;20565;-47
2023/04/25 06:00:58;;;;;;;20.90;3.60;;;;;;;5.62;78.57;100291.94;4966570;28;20296;-47
2023/04/25 06:03:23;;;;;;;16.75;3.42;;;;;;;5.72;78.25;100307.59;4974069;28;20264;-47
2023/04/25 06:05:50;;;;;;;12.68;3.05;;;;;;;5.71;77.97;100295.25;4968106;28;20468;-46
2023/04/25 06:08:15;;;;;;;16.75;3.58;;;;;;;5.66;77.53;100298.94;4988494;28;20655;-48
2023/04/25 06:10:42;;;;;;;16.75;3.50;;;;;;;5.68;77.18;100291.78;4965989;28;20208;-47
2023/04/25 06:13:07;;;;;;;13.70;3.05;;;;;;;5.77;76.97;100305.72;4994944;28;20271;-47
2023/04/25 06:15:35;;;;;;;17.63;3.83;;;;;;;5.89;77.37;100301.84;4959671;28;20190;-47
2023/04/25 06:18:00;;;;;;;14.00;3.00;;;;;;;5.76;77.30;100298.66;4994705;28;20189;-48
2023/04/25 06:20:26;;;;;;;16.35;3.33;;;;;;;5.82;76.37;100310.03;4977911;28;20194;-48
2023/04/25 06:22:54;;;;;;;13.63;3.50;;;;;;;6.07;76.11;100311.13;4959619;28;20193;-47
2023/04/25 06:25:26;;;;;;;13.65;3.97;;;;;;;5.88;75.93;100288.59;4967484;28;20189;-48
2023/04/25 06:27:51;;;;;;;16.02;3.38;;;;;;;5.85;75.51;100296.66;4963741;28;20617;-48
2023/04/25 06:30:22;;;;;;;15.55;3.45;;;;;;;5.94;75.61;100293.75;4995841;28;20225;-46
2023/04/25 06:32:49;;;;;;;18.08;3.60;;;;;;;5.89;76.00;100300.97;4994079;28;20609;-51
2023/04/25 06:35:15;;;;;;;12.35;3.63;;;;;;;5.90;75.11;100289.41;4991034;28;20285;-50
2023/04/25 06:37:41;;;;;;;15.95;3.25;;;;;;;6.00;75.00;100301.59;4969490;28;20613;-49
2023/04/25 06:40:07;;;;;;;16.90;3.55;;;;;;;5.87;75.04;100294.84;4993665;28;20622;-50
2023/04/25 06:42:32;;;;;;;19.05;3.80;;;;;;;5.78;73.84;100288.84;4969375;28;20185;-49
2023/04/25 06:44:59;;;;;;;16.25;5.97;;;;;;;6.00;74.37;100298.94;4967074;28;20331;-49
2023/04/25 06:47:27;;;;;;;12.70;3.90;;;;;;;6.01;73.52;100295.34;4991874;28;20675;-49
2023/04/25 06:49:52;;;;;;;23.10;4.00;;;;;;;5.91;73.69;100296.50;4962458;28;20202;-50
2023/04/25 06:52:19;;;;;;;17.42;3.55;;;;;;;6.19;72.89;100292.16;4971559;28;20188;-48
2023/04/25 06:54:45;;;;;;;13.43;3.00;;;;;;;6.10;73.25;100294.22;4962039;28;20182;-49
2023/04/25 06:57:26;;;;;;;20.25;3.28;;;;;;;5.96;73.98;100308.75;4960697;28;20201;-50
2023/04/25 06:59:54;;;;;;;19.42;4.30;;;;;;;5.85;74.76;100313.47;4992222;28;20574;-50
2023/04/25 07:02:21;;;;;;;14.18;3.78;;;;;;;6.03;74.54;100311.25;4967002;28;20195;-48
2023/04/25 07:04:48;;;;;;;13.32;3.30;;;;;;;5.94;75.03;100334.53;4992442;28;20176;-48
2023/04/25 07:07:14;;;;;;;17.33;4.47;;;;;;;6.12;75.07;100322.53;4977272;28;20193;-49
2023/04/25 07:09:54;;;;;;;15.60;3.15;;;;;;;6.05;75.35;100326.25;4989313;28;20206;-48
2023/04/25 07:12:20;;;;;;;14.90;3.33;;;;;;;5.92;76.34;100333.66;4946493;28;20190;-48
2023/04/25 07:14:46;;;;;;;16.23;3.17;;;;;;;5.90;76.35;100347.91;4962975;28;20189;-48
2023/04/25 07:17:11;;;;;;;15.68;3.78;;;;;;;6.17;76.97;100341.88;4996698;28;20186;-51
2023/04/25 07:19:39;;;;;;;17.80;3.50;;;;;;;6.04;77.46;100348.44;4979046;28;20619;-50
2023/04/25 07:22:06;;;;;;;13.70;4.00;;;;;;;6.09;77.75;100351.84;4967919;28;20193;-49
2023/04/25 07:24:34;;;;;;;14.05;3.58;;;;;;;6.31;77.25;100365.41;4968402;28;20181;-48
2023/04/25 07:27:01;;;;;;;13.18;3.38;;;;;;;6.24;77.21;100365.66;4991921;28;20197;-48
2023/04/25 07:29:30;;;;;;;18.83;3.45;;;;;;;6.07;76.84;100361.66;5023297;23;20221;-40
2023/04/25 07:31:58;;;;;;;19.70;3.47;;;;;;;6.01;76.71;100356.50;4990598;28;20215;-42
2023/04/25 07:34:23;;;;;;;10.88;2.47;;;;;;;6.06;77.26;100362.59;4993235;28;20201;-44
2023/04/25 07:36:49;;;;;;;16.70;3.25;;;;;;;6.16;77.60;100372.03;4994650;28;20185;-43
2023/04/25 07:39:15;;;;;;;14.05;3.08;;;;;;;6.17;77.28;100378.25;4992478;28;20181;-44
2023/04/25 07:41:41;;;;;;;11.65;3.00;;;;;;;6.32;77.27;100367.19;4992466;28;20590;-42
2023/04/25 07:44:10;;;;;;;11.15;2.80;;;;;;;6.22;77.41;100364.81;4991107;28;20173;-43
2023/04/25 07:46:35;;;;;;;11.32;3.22;;;;;;;6.33;77.82;100368.91;4997365;28;20561;-44
2023/04/25 07:49:02;;;;;;;20.95;3.38;;;;;;;6.34;77.80;100367.13;4991846;28;20197;-42
2023/04/25 07:51:28;;;;;;;19.83;3.55;;;;;;;6.32;77.92;100382.25;4991992;28;20675;-40
2023/04/25 07:53:57;;;;;;;20.00;3.88;;;;;;;6.39;78.02;100387.38;4991890;28;20192;-43
2023/04/25 07:56:24;;;;;;;10.95;2.67;;;;;;;6.45;77.94;100382.78;4991988;28;20185;-45
2023/04/25 07:58:51;;;;;;;9.98;2.85;;;;;;;6.30;77.12;100387.63;4991837;28;20280;-42
2023/04/25 08:01:20;;;;;;;15.70;2.90;;;;;;;6.43;76.84;100371.31;4991971;28;20201;-43
2023/04/25 08:03:51;;;;;;;15.40;3.22;;;;;;;6.49;76.37;100368.47;4991731;28;20224;-45
2023/04/25 08:06:22;;;;;;;14.35;2.80;;;;;;;6.71;76.21;100371.38;4995646;28;20193;-42
2023/04/25 08:09:05;;;;;;;14.48;3.53;;;;;;;6.66;76.15;100381.31;4991683;28;20263;-44
2023/04/25 08:11:36;;;;;;;15.18;2.90;;;;;;;6.77;74.98;100377.41;4991517;28;20653;-42
2023/04/25 08:14:02;;;;;;;14.30;2.90;;;;;;;6.81;74.65;100381.72;4991572;28;20248;-45
2023/04/25 08:16:28;;;;;;;14.85;2.80;;;;;;;6.63;74.16;100373.41;4986980;28;20272;-43
2023/04/25 08:18:54;;;;;;;9.65;2.92;;;;;;;6.86;73.58;100381.56;4993053;28;20193;-42
2023/04/25 08:21:20;;;;;;;13.02;3.05;;;;;;;6.77;72.61;100372.06;4992693;28;20712;-42
2023/04/25 08:23:45;;;;;;;17.00;3.20;;;;;;;7.15;72.45;100358.47;4991386;28;20208;-41
2023/04/25 08:26:14;;;;;;;12.25;2.63;;;;;;;7.12;71.52;100359.47;4991754;28;20351;-42
2023/04/25 08:28:41;;;;;;;11.40;3.15;;;;;;;7.21;70.92;100356.53;4995029;28;20200;-42
2023/04/25 08:31:07;;;;;;;11.43;2.35;;;;;;;7.22;70.78;100366.25;4992397;28;20705;-42
2023/04/25 08:33:43;;;;;;;12.57;2.65;;;;;;;7.33;70.45;100362.38;4990456;28;20619;-43
2023/04/25 08:36:27;;;;;;;12.50;3.00;;;;;;;7.36;70.63;100368.47;4990995;28;20193;-42
2023/04/25 08:38:54;;;;;;;10.65;2.63;;;;;;;7.83;69.92;100368.69;4990806;28;20648;-42
2023/04/25 08:41:21;;;;;;;16.35;2.75;;;;;;;7.87;68.69;100342.78;4990439;28;20205;-41
2023/04/25 08:43:48;;;;;;;11.77;2.45;;;;;;;8.06;68.03;100353.66;4991132;28;20182;-40
2023/04/25 08:46:17;;;;;;;20.02;2.80;;;;;;;8.00;67.78;100353.88;4998113;28;20290;-42
2023/04/25 08:49:03;;;;;;;10.25;2.40;;;;;;;7.91;66.99;100354.19;4978980;28;20251;-41
2023/04/25 08:51:33;;;;;;;12.82;2.75;;;;;;;7.56;66.62;100345.63;4992685;28;20572;-40
2023/04/25 08:54:12;;;;;;;16.50;3.13;;;;;;;7.33;67.35;100365.91;4991277;28;20667;-43
2023/04/25 08:56:40;;;;;;;17.73;3.35;;;;;;;7.34;68.03;100377.44;4990374;28;20208;-43
2023/04/25 08:59:07;;;;;;;12.43;2.90;;;;;;;7.33;67.77;100378.38;4988958;28;20178;-42
2023/04/25 09:01:35;;;;;;;15.73;3.08;;;;;;;7.21;68.62;100390.28;4990666;28;20209;-42
2023/04/25 09:04:01;;;;;;;13.52;2.40;;;;;;;7.02;69.19;100400.66;4991837;28;20193;-42
2023/04/25 09:06:28;;;;;;;11.10;2.55;;;;;;;6.95;69.99;100409.72;4990703;28;20272;-42
2023/04/25 09:08:54;;;;;;;16.33;3.28;;;;;;;6.97;71.82;100430.06;4990906;28;20205;-42
2023/04/25 09:11:20;;;;;;;16.00;3.42;;;;;;;6.94;73.55;100443.47;4990821;28;20227;-41
2023/04/25 09:13:46;;;;;;;13.23;2.40;;;;;;;6.90;74.05;100465.78;4991484;28;20173;-43
2023/04/25 09:16:56;;;;;;;9.40;2.15;;;;;;;6.93;75.30;100455.06;4989418;28;20942;-43
2023/04/25 09:19:44;;;;;;;5.43;2.03;;;;;;;7.07;75.97;100475.09;4991185;28;20209;-42
2023/04/25 09:22:30;;;;;;;10.98;2.75;;;;;;;7.06;75.50;100476.00;4991459;28;20201;-42
2023/04/25 09:24:55;;;;;;;10.60;2.50;;;;;;;7.22;75.07;100474.63;4990394;28;20647;-42
2023/04/25 09:27:26;;;;;;;12.63;2.42;;;;;;;7.34;73.52;100476.91;4990163;28;20185;-40
2023/04/25 09:30:01;;;;;;;9.75;2.40;;;;;;;7.33;72.61;100464.50;4983095;28;20261;-42
2023/04/25 09:32:31;;;;;;;11.40;2.58;;;;;;;7.48;71.59;100456.94;4988022;28;20613;-40
2023/04/25 09:34:57;;;;;;;8.43;2.20;;;;;;;7.40;70.59;100443.88;4990145;28;20647;-39
2023/04/25 09:37:30;;;;;;;10.15;2.83;;;;;;;7.60;69.91;100440.56;4989566;28;20209;-42
2023/04/25 09:40:07;;;;;;;11.77;2.38;;;;;;;7.62;69.41;100449.38;4991274;28;20224;-43
2023/04/25 09:42:41;;;;;;;12.85;2.38;;;;;;;7.64;69.74;100448.41;4981276;28;20261;-44
2023/04/25 09:45:07;;;;;;;13.57;2.78;;;;;;;7.71;69.93;100464.22;4991563;28;20581;-42
2023/04/25 09:47:38;;;;;;;9.57;2.40;;;;;;;7.79;70.55;100467.53;4989876;28;20177;-43
2023/04/25 09:50:16;;;;;;;10.50;2.42;;;;;;;7.56;70.33;100462.91;4981554;28;20208;-43
2023/04/25 09:52:45;;;;;;;15.18;2.40;;;;;;;7.52;71.08;100470.16;4987990;28;20178;-43
2023/04/25 09:55:19;;;;;;;14.40;2.42;;;;;;;7.71;70.54;100470.41;4988404;28;20189;-42
2023/04/25 09:57:53;;;;;;;9.85;2.55;;;;;;;8.16;69.99;100472.50;4995051;28;20192;-43
2023/04/25 10:00:19;;;;;;;10.05;2.72;;;;;;;9.30;70.00;100455.03;4978836;28;20236;-43
2023/04/25 10:02:48;;;;;;;13.60;2.90;;;;;;;8.85;68.68;100440.72;4991034;28;20551;-41
2023/04/25 10:05:35;;;;;;;16.75;2.83;;;;;;;8.50;68.06;100444.66;4970328;28;20280;-42
2023/04/25 10:08:04;;;;;;;10.20;2.60;;;;;;;8.44;68.30;100452.91;4989160;28;20196;-41
2023/04/25 10:10:32;;;;;;;10.57;2.55;;;;;;;7.87;67.84;100444.16;4989305;28;20209;-43
2023/04/25 10:12:58;;;;;;;11.30;2.40;;;;;;;7.63;68.37;100456.44;4990547;28;20181;-42
2023/04/25 10:15:25;;;;;;;11.95;2.70;;;;;;;7.64;69.57;100477.75;4990579;28;20276;-42
2023/04/25 10:17:50;;;;;;;11.77;2.67;;;;;;;7.10;73.04;100499.81;4990858;28;20193;-42
2023/04/25 10:20:16;;;;;;;8.38;2.33;;;;;;;7.00;76.23;100539.19;4990050;28;20244;-41
2023/04/25 10:22:47;;;;;;;9.95;2.35;;;;;;;6.85;78.96;100560.91;4989612;28;20214;-42
2023/04/25 10:25:13;;;;;;;13.23;1.92;;;;;;;6.95;81.37;100577.50;4994406;28;20182;-44
2023/04/25 10:27:40;;;;;;;9.30;2.15;;;;;;;7.35;82.35;100587.06;4990257;28;20181;-41
2023/04/25 10:30:12;;;;;;;10.65;2.10;;;;;;;7.99;82.83;100587.78;4989891;28;20213;-40
2023/04/25 10:32:38;;;;;;;9.70;1.90;;;;;;;8.32;82.41;100579.59;4992127;28;20256;-42
2023/04/25 10:35:30;;;;;;;12.00;2.35;;;;;;;8.65;81.45;100574.94;4989082;28;20193;-39
2023/04/25 10:38:08;;;;;;;11.55;2.20;;;;;;;8.49;79.99;100563.06;4986041;28;20211;-44
2023/04/25 10:40:34;;;;;;;5.75;1.70;;;;;;;8.48;78.46;100555.97;4990395;28;20219;-41
2023/04/25 10:43:31;;;;;;;10.38;2.40;;;;;;;8.23;77.23;100532.75;4985850;28;20190;-42
2023/04/25 10:45:59;;;;;;;11.13;2.38;;;;;;;7.96;76.83;100537.19;4991697;28;20178;-44
2023/04/25 10:48:29;;;;;;;9.60;1.90;;;;;;;7.98;76.78;100543.34;4988653;28;20192;-43
2023/04/25 10:51:09;;;;;;;12.98;2.50;;;;;;;7.67;76.72;100531.91;4989402;28;20200;-42
2023/04/25 10:53:35;;;;;;;9.63;2.03;;;;;;;7.67;77.15;100540.75;4988417;28;20184;-41
2023/04/25 10:56:03;;;;;;;11.75;1.90;;;;;;;7.63;77.60;100553.34;4993331;28;20767;-41
2023/04/25 10:58:28;;;;;;;14.85;3.03;;;;;;;7.94;77.32;100552.38;4990446;28;20339;-40
2023/04/25 11:00:55;;;;;;;11.75;1.88;;;;;;;8.37;77.62;100553.63;4990075;28;20284;-41
2023/04/25 11:03:21;;;;;;;10.40;2.20;;;;;;;8.93;76.87;100560.63;4990346;28;20213;-41
2023/04/25 11:05:49;;;;;;;12.70;2.38;;;;;;;9.33;76.45;100543.13;4991628;28;20185;-42
2023/04/25 11:08:33;;;;;;;12.77;2.50;;;;;;;9.34;75.58;100533.34;4994102;28;20272;-43
2023/04/25 11:10:59;;;;;;;10.68;2.38;;;;;;;9.27;75.06;100525.53;4991547;28;20279;-41
2023/04/25 11:13:30;;;;;;;11.82;2.45;;;;;;;8.73;73.63;100512.41;4993271;28;20181;-40
2023/04/25 11:15:55;;;;;;;7.43;1.90;;;;;;;8.56;73.11;100515.66;4992657;28;20181;-43
2023/04/25 11:18:21;;;;;;;9.35;2.00;;;;;;;7.88;74.86;100536.56;4992455;28;20554;-42
2023/04/25 11:20:48;;;;;;;7.63;1.67;;;;;;;7.70;77.36;100569.16;4994038;28;20204;-42
2023/04/25 11:23:15;;;;;;;6.32;1.70;;;;;;;7.92;79.48;100593.38;4992851;28;20209;-42
2023/04/25 11:25:40;;;;;;;1.75;1.10;;;;;;;7.73;79.28;100595.72;4993873;28;20181;-43
2023/04/25 11:28:06;;;;;;;5.90;1.40;;;;;;;8.17;79.23;100585.44;4993439;28;20185;-42
2023/04/25 11:30:31;;;;;;;12.35;1.85;;;;;;;8.27;76.71;100581.56;4993757;28;20278;-41
2023/04/25 11:32:57;;;;;;;5.47;1.65;;;;;;;8.88;75.23;100559.94;4993876;28;20275;-42
2023/04/25 11:35:25;;;;;;;5.47;1.73;;;;;;;8.95;73.48;100553.44;4993695;28;20245;-41
2023/04/25 11:37:51;;;;;;;9.30;2.15;;;;;;;9.15;71.78;100546.50;4993153;28;20192;-44